Time;durP1;ratioP1;P1;durP2;ratioP2;P2;SDS_P1;SDS_P2;PMS_P1;PMS_P2;Temp;Humidity;BMP_temperature;BMP_pressure;BME280_temperature;BME280_humidity;BME280_pressure;Samples;Min_cycle;Max_cycle;Signal;HPM_P1;HPM_P2
2023/03/30 00:02:02;;;;;;;0.30;0.30;;;;;;;13.26;65.21;100149.25;5167133;28;20022;-88
2023/03/30 00:04:33;;;;;;;0.73;0.73;;;;;;;13.24;65.09;100146.66;5162259;28;20047;-87
2023/03/30 00:07:04;;;;;;;0.20;0.20;;;;;;;13.23;65.13;100135.28;5134712;28;20033;-87
2023/03/30 00:09:41;;;;;;;0.22;0.22;;;;;;;13.21;65.59;100131.03;5160473;28;20585;-89
2023/03/30 00:12:19;;;;;;;0.20;0.20;;;;;;;13.18;65.06;100136.44;5142653;28;20026;-88
2023/03/30 00:14:49;;;;;;;0.70;0.45;;;;;;;13.15;65.38;100137.44;5147536;28;20065;-87
2023/03/30 00:17:20;;;;;;;0.28;0.28;;;;;;;13.14;65.05;100129.63;5164274;28;20647;-89
2023/03/30 00:19:50;;;;;;;0.63;0.63;;;;;;;13.12;65.19;100131.47;5147028;28;20125;-88
2023/03/30 00:22:21;;;;;;;0.20;0.20;;;;;;;13.07;64.86;100135.16;5176968;28;20272;-89
2023/03/30 00:24:51;;;;;;;0.75;0.75;;;;;;;13.12;64.98;100147.25;5153924;28;20053;-87
2023/03/30 00:27:21;;;;;;;0.35;0.35;;;;;;;13.05;64.81;100150.19;5177185;28;20179;-87
2023/03/30 00:29:52;;;;;;;0.20;0.20;;;;;;;13.01;64.80;100142.50;5130624;28;20039;-87
2023/03/30 00:32:23;;;;;;;0.75;0.68;;;;;;;13.01;64.68;100142.50;5159696;28;20034;-87
2023/03/30 00:34:53;;;;;;;1.27;1.08;;;;;;;12.95;64.84;100155.94;5160700;28;20165;-88
2023/03/30 00:37:24;;;;;;;0.40;0.40;;;;;;;13.05;64.51;100142.28;5158593;28;20116;-87
2023/03/30 00:39:55;;;;;;;0.20;0.20;;;;;;;12.94;64.61;100135.78;5159600;28;20031;-87
2023/03/30 00:42:26;;;;;;;0.85;0.85;;;;;;;12.95;64.75;100113.81;5167150;28;20029;-88
2023/03/30 00:45:25;;;;;;;0.20;0.20;;;;;;;12.94;63.60;100102.44;5182036;28;20094;-89
2023/03/30 00:48:05;;;;;;;0.30;0.30;;;;;;;12.89;64.20;100101.81;5170832;28;20030;-88
2023/03/30 00:50:46;;;;;;;0.20;0.20;;;;;;;12.91;64.40;100092.91;5161104;28;20077;-87
2023/03/30 00:53:21;;;;;;;0.45;0.45;;;;;;;12.89;64.17;100092.09;5130778;28;20026;-87
2023/03/30 00:55:53;;;;;;;2.28;0.47;;;;;;;12.93;64.44;100084.91;5144625;28;20038;-88
2023/03/30 00:58:25;;;;;;;0.45;0.45;;;;;;;12.95;64.32;100083.06;5163015;28;20033;-88
2023/03/30 01:00:58;;;;;;;0.30;0.30;;;;;;;12.94;64.54;100080.50;5147989;28;20042;-87
2023/03/30 01:03:32;;;;;;;0.50;0.50;;;;;;;12.93;63.69;100082.28;5156675;28;20026;-88
2023/03/30 01:06:06;;;;;;;0.57;0.57;;;;;;;12.93;64.10;100079.66;5131960;28;20049;-87
2023/03/30 01:08:39;;;;;;;0.20;0.20;;;;;;;13.02;63.97;100088.88;5157307;28;20039;-88
2023/03/30 01:11:10;;;;;;;0.80;0.80;;;;;;;13.03;63.88;100095.88;5144613;28;20042;-86
2023/03/30 01:13:45;;;;;;;0.28;0.28;;;;;;;13.04;63.84;100090.53;5160850;28;20018;-89
2023/03/30 01:16:42;;;;;;;0.55;0.52;;;;;;;12.99;63.16;100096.94;5160639;28;20770;-87
2023/03/30 01:19:31;;;;;;;0.20;0.20;;;;;;;13.03;63.86;100091.47;5123754;28;20390;-88
2023/03/30 01:22:14;;;;;;;2.92;0.73;;;;;;;12.95;63.29;100088.34;5142990;28;20037;-86
2023/03/30 01:25:14;;;;;;;1.80;1.20;;;;;;;12.95;63.46;100098.00;5161751;28;20042;-87
2023/03/30 01:28:17;;;;;;;0.65;0.65;;;;;;;13.03;63.24;100101.13;5146494;28;20053;-88
2023/03/30 01:31:35;;;;;;;0.32;0.32;;;;;;;13.03;62.97;100102.00;5146606;28;20049;-88
2023/03/30 01:34:24;;;;;;;0.40;0.40;;;;;;;13.02;63.04;100104.69;5126296;28;20066;-88
2023/03/30 01:37:16;;;;;;;0.43;0.43;;;;;;;13.09;63.26;100106.13;5143383;28;20065;-88
2023/03/30 01:39:54;;;;;;;2.08;0.65;;;;;;;13.11;62.43;100101.63;5144990;28;20046;-87
2023/03/30 01:42:34;;;;;;;0.73;0.73;;;;;;;13.15;62.23;100104.97;5175551;28;20030;-88
2023/03/30 01:45:19;;;;;;;22.80;0.93;;;;;;;13.14;62.78;100104.13;5144972;28;20053;-88
2023/03/30 01:48:14;;;;;;;0.70;0.70;;;;;;;13.23;62.44;100102.81;5160620;28;20030;-87
2023/03/30 01:50:59;;;;;;;0.63;0.63;;;;;;;13.29;63.03;100096.41;5160258;28;20371;-88
2023/03/30 01:53:39;;;;;;;1.08;1.00;;;;;;;13.28;62.43;100094.69;5131774;28;20117;-88
2023/03/30 01:56:18;;;;;;;1.10;0.75;;;;;;;13.37;62.71;100083.69;5129160;28;20501;-88
2023/03/30 01:58:58;;;;;;;0.50;0.50;;;;;;;13.38;62.44;100085.41;5132481;28;20049;-88
2023/03/30 02:01:32;;;;;;;0.20;0.20;;;;;;;13.34;62.71;100084.72;5161068;28;20149;-87
2023/03/30 02:04:04;;;;;;;0.20;0.20;;;;;;;13.37;62.15;100078.44;5147721;28;20014;-89
2023/03/30 02:06:58;;;;;;;0.35;0.35;;;;;;;13.44;62.13;100100.09;5162749;28;20038;-86
2023/03/30 02:09:32;;;;;;;0.30;0.30;;;;;;;13.48;61.79;100089.34;5145790;28;20045;-86
2023/03/30 02:12:04;;;;;;;0.20;0.20;;;;;;;13.46;62.07;100078.03;5131090;28;20042;-87
2023/03/30 02:14:37;;;;;;;0.52;0.52;;;;;;;13.53;62.02;100073.31;5144548;28;20048;-87
2023/03/30 02:17:16;;;;;;;2.42;0.57;;;;;;;13.61;61.54;100067.63;5159966;28;20042;-87
2023/03/30 02:19:47;;;;;;;0.50;0.50;;;;;;;13.64;61.40;100067.50;5143129;28;20045;-85
2023/03/30 02:22:19;;;;;;;0.57;0.57;;;;;;;13.61;61.97;100054.44;5159424;28;20034;-87
2023/03/30 02:24:53;;;;;;;1.60;1.52;;;;;;;13.62;61.56;100040.34;5139183;28;20047;-85
2023/03/30 02:27:25;;;;;;;0.25;0.25;;;;;;;13.65;61.51;100029.66;5172754;28;20031;-87
2023/03/30 02:29:56;;;;;;;0.73;0.73;;;;;;;13.64;61.80;100017.41;5150991;28;20126;-87
2023/03/30 02:32:35;;;;;;;0.80;0.50;;;;;;;13.66;61.60;100021.66;5140011;28;20444;-86
2023/03/30 02:35:21;;;;;;;0.20;0.20;;;;;;;13.75;61.37;100041.44;5150053;28;20082;-88
2023/03/30 02:37:54;;;;;;;0.20;0.20;;;;;;;13.72;61.35;100041.59;5157733;28;20030;-86
2023/03/30 02:41:06;;;;;;;0.75;0.75;;;;;;;13.71;61.38;100053.06;5150065;28;20093;-87
2023/03/30 02:43:55;;;;;;;1.35;1.25;;;;;;;13.75;60.97;100040.56;5154651;28;20138;-86
2023/03/30 02:46:41;;;;;;;1.42;1.30;;;;;;;13.74;61.53;100023.91;5124793;28;20521;-87
2023/03/30 02:49:15;;;;;;;0.80;0.80;;;;;;;13.79;61.48;100021.03;5158028;28;20026;-87
2023/03/30 02:51:56;;;;;;;6.63;0.75;;;;;;;13.77;61.66;100015.84;5123050;28;20035;-87
2023/03/30 02:54:36;;;;;;;1.85;1.08;;;;;;;13.76;61.18;100005.38;5156067;28;20100;-87
2023/03/30 02:57:30;;;;;;;22.20;1.00;;;;;;;13.77;61.48;100009.72;5124564;28;20033;-87
2023/03/30 03:00:27;;;;;;;0.35;0.35;;;;;;;13.78;61.42;100014.91;5137570;28;20034;-87
2023/03/30 03:03:04;;;;;;;1.02;0.93;;;;;;;13.79;61.34;100007.88;5154426;28;20035;-86
2023/03/30 03:05:34;;;;;;;0.20;0.20;;;;;;;13.79;61.42;100006.06;5142149;28;20046;-87
2023/03/30 03:08:05;;;;;;;8.25;0.90;;;;;;;13.79;61.74;100011.34;5173158;28;20037;-88
2023/03/30 03:10:35;;;;;;;0.40;0.40;;;;;;;13.82;61.00;100012.97;5144545;28;20053;-87
2023/03/30 03:13:07;;;;;;;0.30;0.30;;;;;;;13.81;61.53;100017.41;5156131;28;20027;-88
2023/03/30 03:15:37;;;;;;;0.38;0.38;;;;;;;13.81;61.18;100009.47;5174068;28;20050;-88
2023/03/30 03:18:09;;;;;;;0.50;0.50;;;;;;;13.77;61.28;100018.47;5171437;28;20035;-86
2023/03/30 03:20:39;;;;;;;0.52;0.52;;;;;;;13.88;61.49;100006.53;5128695;28;20048;-87
2023/03/30 03:23:10;;;;;;;2.30;1.48;;;;;;;13.82;61.52;100011.19;5176031;28;20446;-88
2023/03/30 03:25:40;;;;;;;0.47;0.47;;;;;;;13.83;62.05;100012.91;5140207;28;20656;-89
2023/03/30 03:28:11;;;;;;;0.70;0.70;;;;;;;13.91;62.06;100017.75;5134838;28;20034;-88
2023/03/30 03:30:41;;;;;;;0.22;0.22;;;;;;;13.81;61.87;100009.47;5158414;28;20164;-88
2023/03/30 03:33:12;;;;;;;0.30;0.30;;;;;;;13.82;61.75;100000.66;5146280;28;20033;-88
2023/03/30 03:35:44;;;;;;;0.40;0.40;;;;;;;13.79;61.99;100003.44;5166350;28;20038;-88
2023/03/30 03:38:15;;;;;;;0.50;0.50;;;;;;;13.81;61.90;99995.44;5162514;28;20035;-87
2023/03/30 03:40:49;;;;;;;4.40;1.33;;;;;;;13.88;62.30;99990.69;5160089;28;20596;-88
2023/03/30 03:43:20;;;;;;;0.55;0.55;;;;;;;13.80;62.39;99996.38;5182468;28;20615;-87
2023/03/30 03:45:52;;;;;;;0.30;0.30;;;;;;;13.83;62.32;99996.22;5182472;28;20022;-87
2023/03/30 03:48:23;;;;;;;0.20;0.20;;;;;;;13.82;62.47;99998.00;5165338;28;20028;-86
2023/03/30 03:50:57;;;;;;;1.27;0.90;;;;;;;13.84;62.27;99998.75;5123144;28;20412;-86
2023/03/30 03:53:27;;;;;;;0.60;0.60;;;;;;;13.79;62.42;99984.13;5141619;28;20109;-86
2023/03/30 03:55:58;;;;;;;0.20;0.20;;;;;;;13.83;62.57;99986.53;5124157;28;20045;-86
2023/03/30 03:58:29;;;;;;;0.50;0.50;;;;;;;13.82;62.61;99984.81;5160888;28;20034;-86
2023/03/30 04:01:01;;;;;;;0.43;0.40;;;;;;;13.78;62.03;99991.19;5151867;28;20379;-87
2023/03/30 04:03:31;;;;;;;0.95;0.82;;;;;;;13.76;62.53;99998.31;5160827;28;20034;-86
2023/03/30 04:06:02;;;;;;;0.30;0.30;;;;;;;13.77;62.69;100000.00;5131537;28;20041;-86
2023/03/30 04:08:32;;;;;;;0.65;0.65;;;;;;;13.82;62.42;100000.66;5167346;28;20082;-86
2023/03/30 04:11:10;;;;;;;0.30;0.30;;;;;;;13.78;62.78;99983.25;5170593;28;20041;-86
2023/03/30 04:13:41;;;;;;;0.52;0.52;;;;;;;13.61;62.38;99981.53;5159639;28;20031;-88
2023/03/30 04:16:11;;;;;;;0.32;0.32;;;;;;;13.61;62.18;99980.66;5167289;28;20506;-88
2023/03/30 04:18:42;;;;;;;0.20;0.20;;;;;;;13.68;61.50;99971.50;5153082;28;20061;-87
2023/03/30 04:21:16;;;;;;;0.25;0.25;;;;;;;13.69;61.62;99965.28;5165897;28;20045;-87
2023/03/30 04:23:47;;;;;;;0.22;0.22;;;;;;;13.64;62.26;99964.69;5139704;28;20046;-87
2023/03/30 04:26:18;;;;;;;0.80;0.80;;;;;;;13.66;62.19;99968.94;5173064;28;20038;-87
2023/03/30 04:28:52;;;;;;;0.40;0.40;;;;;;;13.70;62.19;99974.91;5144539;28;20065;-86
2023/03/30 04:31:22;;;;;;;0.88;0.88;;;;;;;13.69;62.34;99989.00;5173900;28;20066;-86
2023/03/30 04:33:53;;;;;;;2.75;1.38;;;;;;;13.68;62.77;99988.19;5157493;28;20034;-85
2023/03/30 04:36:23;;;;;;;4.57;2.17;;;;;;;13.69;62.89;99983.75;5159257;28;20049;-86
2023/03/30 04:38:57;;;;;;;0.40;0.40;;;;;;;13.65;63.28;99996.22;5161212;28;20032;-86
2023/03/30 04:41:34;;;;;;;0.98;0.70;;;;;;;13.70;62.93;99996.00;5156912;28;20054;-86
2023/03/30 04:44:08;;;;;;;0.93;0.75;;;;;;;13.69;63.25;99991.66;5174462;28;20099;-86
2023/03/30 04:46:39;;;;;;;0.45;0.45;;;;;;;13.69;63.37;99989.88;5161825;28;20057;-88
2023/03/30 04:49:09;;;;;;;1.00;0.85;;;;;;;13.73;63.14;99990.56;5130979;28;20057;-87
2023/03/30 04:51:41;;;;;;;0.20;0.20;;;;;;;13.75;62.93;99994.00;5144546;28;20034;-86
2023/03/30 04:54:11;;;;;;;0.40;0.40;;;;;;;13.80;62.86;99986.69;5145100;28;20031;-88
2023/03/30 04:56:42;;;;;;;0.47;0.47;;;;;;;13.76;63.32;99994.84;5160526;28;20023;-88
2023/03/30 04:59:12;;;;;;;11.63;2.05;;;;;;;13.80;62.90;99991.97;5162469;28;20031;-86
2023/03/30 05:01:44;;;;;;;2.10;0.73;;;;;;;13.78;63.31;99985.91;5145092;28;20106;-88
2023/03/30 05:04:14;;;;;;;0.30;0.30;;;;;;;13.82;63.37;99992.72;5128691;28;20030;-88
2023/03/30 05:06:48;;;;;;;0.35;0.35;;;;;;;13.78;63.79;99983.25;5146976;28;20029;-88
2023/03/30 05:09:19;;;;;;;0.20;0.20;;;;;;;13.79;63.75;99990.25;5156800;28;20510;-87
2023/03/30 05:11:49;;;;;;;0.40;0.40;;;;;;;13.79;63.51;99994.69;5148095;28;20036;-87
2023/03/30 05:14:20;;;;;;;0.60;0.60;;;;;;;13.80;63.57;99996.38;5141226;28;20019;-88
2023/03/30 05:16:50;;;;;;;0.57;0.57;;;;;;;13.79;63.50;99998.16;5144973;28;20030;-88
2023/03/30 05:19:21;;;;;;;0.30;0.30;;;;;;;13.79;63.67;99992.88;5159306;28;20504;-88
2023/03/30 05:21:54;;;;;;;0.20;0.20;;;;;;;13.79;63.67;99995.53;5147632;28;20046;-87
2023/03/30 05:24:25;;;;;;;0.63;0.63;;;;;;;13.79;64.08;99995.53;5158288;28;20081;-86
2023/03/30 05:26:55;;;;;;;0.52;0.52;;;;;;;13.78;64.47;99993.81;5153212;28;20027;-88
2023/03/30 05:29:26;;;;;;;0.77;0.77;;;;;;;13.78;64.11;99993.81;5147228;28;20133;-88
2023/03/30 05:31:57;;;;;;;0.28;0.28;;;;;;;13.79;64.37;100002.59;5165176;28;20156;-88
2023/03/30 05:34:27;;;;;;;2.20;1.48;;;;;;;13.80;64.38;100005.13;5140016;28;20051;-88
2023/03/30 05:36:58;;;;;;;0.20;0.20;;;;;;;13.82;64.22;100000.66;5144155;28;20114;-87
2023/03/30 05:39:28;;;;;;;0.20;0.20;;;;;;;13.83;64.37;99994.44;5166105;28;20034;-88
2023/03/30 05:42:00;;;;;;;0.28;0.28;;;;;;;13.89;63.73;99990.59;5178818;28;20022;-88
2023/03/30 05:44:30;;;;;;;23.67;1.27;;;;;;;13.84;63.68;100009.31;5175361;28;20562;-89
2023/03/30 05:47:01;;;;;;;0.20;0.20;;;;;;;13.87;64.05;100018.88;5175551;28;20034;-88
2023/03/30 05:49:31;;;;;;;3.72;1.70;;;;;;;13.89;64.05;100014.34;5148055;28;20046;-90
2023/03/30 05:52:02;;;;;;;1.15;1.05;;;;;;;13.89;63.81;100010.88;5127308;28;20124;-88
2023/03/30 05:54:33;;;;;;;1.75;1.02;;;;;;;13.90;63.73;100023.97;5137915;28;20126;-87
2023/03/30 05:57:03;;;;;;;0.90;0.68;;;;;;;13.85;63.58;100024.19;5128767;28;20046;-88
2023/03/30 05:59:34;;;;;;;0.38;0.38;;;;;;;13.90;63.98;100023.13;5140806;28;20600;-87
2023/03/30 06:02:05;;;;;;;0.63;0.63;;;;;;;13.91;63.74;100024.81;5162099;28;20062;-88
2023/03/30 06:04:36;;;;;;;0.85;0.85;;;;;;;13.93;63.37;100020.31;5157867;28;20077;-86
2023/03/30 06:07:06;;;;;;;0.40;0.40;;;;;;;13.93;63.54;100026.44;5158026;28;20030;-88
2023/03/30 06:09:37;;;;;;;0.30;0.30;;;;;;;13.90;63.18;100023.97;5144268;28;20045;-88
2023/03/30 06:12:12;;;;;;;0.30;0.30;;;;;;;13.92;62.73;100026.53;5150613;28;20118;-88
2023/03/30 06:14:43;;;;;;;0.75;0.60;;;;;;;13.90;63.19;100015.22;5142351;28;20135;-87
2023/03/30 06:17:14;;;;;;;0.40;0.40;;;;;;;13.80;62.66;100007.78;5146222;28;20006;-88
2023/03/30 06:19:45;;;;;;;0.30;0.30;;;;;;;13.79;62.75;100000.78;5158950;28;20034;-88
2023/03/30 06:22:15;;;;;;;0.28;0.28;;;;;;;13.67;62.96;100001.44;5160877;28;20126;-88
2023/03/30 06:24:46;;;;;;;0.40;0.40;;;;;;;13.64;63.39;100012.97;5143969;28;20043;-87
2023/03/30 06:27:16;;;;;;;0.50;0.50;;;;;;;13.64;63.34;100006.88;5161526;28;20069;-87
2023/03/30 06:29:47;;;;;;;0.22;0.22;;;;;;;13.62;63.35;100011.34;5148425;28;20038;-88
2023/03/30 06:32:18;;;;;;;0.57;0.57;;;;;;;13.65;63.34;100019.13;5160471;28;20438;-88
2023/03/30 06:34:48;;;;;;;1.85;1.23;;;;;;;13.74;63.16;100029.19;5144276;28;20050;-87
2023/03/30 06:37:19;;;;;;;1.70;0.82;;;;;;;13.76;63.03;100022.03;5144798;28;20031;-88
2023/03/30 06:39:50;;;;;;;0.40;0.40;;;;;;;13.81;63.18;100032.34;5156118;28;20091;-88
2023/03/30 06:42:20;;;;;;;0.20;0.20;;;;;;;13.80;63.95;100034.16;5180609;28;20019;-88
2023/03/30 06:44:51;;;;;;;0.20;0.20;;;;;;;13.78;63.76;100040.44;5198045;28;20041;-89
2023/03/30 06:47:21;;;;;;;0.35;0.35;;;;;;;13.82;63.55;100040.19;5152137;28;20035;-88
2023/03/30 06:49:52;;;;;;;0.38;0.38;;;;;;;13.89;63.12;100048.63;5161204;28;20053;-89
2023/03/30 06:52:23;;;;;;;0.68;0.68;;;;;;;13.84;63.63;100038.31;5171661;28;20045;-87
2023/03/30 06:54:53;;;;;;;0.45;0.45;;;;;;;13.82;63.40;100042.84;5192065;28;20043;-88
2023/03/30 06:57:24;;;;;;;0.85;0.75;;;;;;;13.84;63.38;100048.03;5176059;28;20045;-87
2023/03/30 06:59:55;;;;;;;0.32;0.32;;;;;;;13.81;63.70;100046.41;5144178;28;20045;-89
2023/03/30 07:02:26;;;;;;;0.52;0.47;;;;;;;13.80;63.40;100044.69;5171670;28;20030;-88
2023/03/30 07:04:56;;;;;;;0.20;0.20;;;;;;;13.81;63.69;100054.31;5154870;28;20073;-87
2023/03/30 07:07:27;;;;;;;0.30;0.30;;;;;;;13.82;64.17;100042.84;5163551;28;20074;-87
2023/03/30 07:09:58;;;;;;;0.20;0.20;;;;;;;13.79;64.11;100050.06;5162591;28;20401;-87
2023/03/30 07:12:28;;;;;;;0.17;0.17;;;;;;;13.81;64.42;100051.66;5146784;28;20490;-88
2023/03/30 07:14:59;;;;;;;0.38;0.38;;;;;;;13.85;64.71;100052.38;5144344;28;20637;-86
2023/03/30 07:17:29;;;;;;;4.07;1.15;;;;;;;13.80;65.24;100049.97;5134953;28;20030;-87
2023/03/30 07:20:00;;;;;;;2.92;1.45;;;;;;;13.78;65.25;100051.81;5159595;28;20640;-87
2023/03/30 07:22:31;;;;;;;0.70;0.70;;;;;;;13.85;65.50;100062.91;5131439;28;20042;-87
2023/03/30 07:25:02;;;;;;;1.10;1.02;;;;;;;13.80;65.09;100064.94;5172431;28;20046;-87
2023/03/30 07:27:34;;;;;;;0.50;0.50;;;;;;;13.89;64.98;100064.44;5160838;28;20457;-87
2023/03/30 07:30:07;;;;;;;0.28;0.28;;;;;;;13.88;65.28;100068.03;5131238;28;20122;-87
2023/03/30 07:32:38;;;;;;;0.30;0.30;;;;;;;13.84;65.20;100067.31;5161743;28;20058;-87
2023/03/30 07:35:08;;;;;;;0.95;0.85;;;;;;;13.88;64.87;100067.16;5159303;28;20057;-88
2023/03/30 07:37:39;;;;;;;0.63;0.63;;;;;;;13.84;65.20;100067.31;5150818;28;20026;-87
2023/03/30 07:40:10;;;;;;;0.75;0.75;;;;;;;13.85;65.41;100107.75;5160576;28;20113;-86
2023/03/30 07:42:41;;;;;;;0.30;0.30;;;;;;;13.64;65.09;100101.75;5175150;28;20030;-88
2023/03/30 07:45:11;;;;;;;0.30;0.30;;;;;;;13.66;66.09;100100.75;5155475;28;20035;-86
2023/03/30 07:47:42;;;;;;;1.08;1.05;;;;;;;13.48;68.60;100110.44;5164573;28;20093;-87
2023/03/30 07:50:12;;;;;;;0.20;0.20;;;;;;;13.46;68.64;100119.34;5162818;28;20035;-87
2023/03/30 07:52:43;;;;;;;0.82;0.82;;;;;;;13.52;67.84;100104.06;5150084;28;20109;-87
2023/03/30 07:55:13;;;;;;;3.38;0.88;;;;;;;13.32;68.87;100112.06;5164218;28;20666;-88
2023/03/30 07:57:45;;;;;;;1.60;1.20;;;;;;;13.09;69.66;100114.03;5165458;28;20641;-87
2023/03/30 08:00:15;;;;;;;3.15;0.38;;;;;;;13.13;69.59;100123.47;5162031;28;20067;-87
2023/03/30 08:02:46;;;;;;;0.20;0.20;;;;;;;13.15;69.90;100115.50;5145368;28;20460;-87
2023/03/30 08:05:17;;;;;;;0.50;0.50;;;;;;;13.18;69.87;100121.47;5163694;28;20113;-87
2023/03/30 08:07:48;;;;;;;0.20;0.20;;;;;;;13.17;71.04;100126.81;5161808;28;20030;-87
2023/03/30 08:10:18;;;;;;;8.60;2.05;;;;;;;13.11;71.43;100120.06;5149772;28;20046;-90
2023/03/30 08:12:49;;;;;;;0.20;0.20;;;;;;;13.22;72.30;100130.94;5152881;28;20402;-88
2023/03/30 08:15:19;;;;;;;0.20;0.20;;;;;;;13.11;73.37;100129.75;5166626;28;20073;-88
2023/03/30 08:17:51;;;;;;;0.20;0.20;;;;;;;13.18;72.83;100132.00;5172607;28;20472;-89
2023/03/30 08:20:21;;;;;;;0.20;0.20;;;;;;;13.27;73.11;100129.84;5165009;28;20034;-87
2023/03/30 08:22:52;;;;;;;0.30;0.30;;;;;;;13.26;72.29;100131.66;5169807;28;20029;-87
2023/03/30 08:25:22;;;;;;;1.08;0.98;;;;;;;13.39;71.93;100129.31;5130468;28;20057;-87
2023/03/30 08:27:53;;;;;;;0.20;0.20;;;;;;;13.32;72.35;100134.00;5164536;28;20026;-88
2023/03/30 08:30:23;;;;;;;0.20;0.20;;;;;;;13.33;71.98;100127.78;5154815;28;20045;-89
2023/03/30 08:32:54;;;;;;;0.20;0.20;;;;;;;13.23;72.44;100131.78;5151612;28;20065;-88
2023/03/30 08:35:25;;;;;;;0.30;0.30;;;;;;;13.33;72.00;100121.69;5158749;28;20540;-88
2023/03/30 08:37:56;;;;;;;0.30;0.30;;;;;;;13.20;72.98;100134.59;5144261;28;20063;-88
2023/03/30 08:40:26;;;;;;;0.20;0.20;;;;;;;13.16;74.24;100135.63;5162166;28;20043;-88
2023/03/30 08:43:28;;;;;;;0.20;0.20;;;;;;;13.16;74.75;100136.50;5177226;28;20057;-87
2023/03/30 08:46:00;;;;;;;1.05;0.70;;;;;;;13.09;74.56;100126.31;5147959;28;20169;-87
2023/03/30 08:48:36;;;;;;;0.40;0.40;;;;;;;13.13;73.57;100128.75;5173675;28;20042;-88
2023/03/30 08:51:22;;;;;;;0.55;0.55;;;;;;;13.13;72.44;100134.00;5153487;28;20127;-89
2023/03/30 08:53:57;;;;;;;0.63;0.63;;;;;;;13.11;71.58;100138.50;5147229;28;20029;-89
2023/03/30 08:56:41;;;;;;;1.05;0.63;;;;;;;13.16;71.36;100139.16;5140884;28;20513;-89
2023/03/30 08:59:26;;;;;;;1.35;1.35;;;;;;;13.13;71.30;100164.78;5126908;28;20027;-88
2023/03/30 09:02:20;;;;;;;0.25;0.25;;;;;;;12.87;70.33;100167.66;5161548;28;20881;-88
2023/03/30 09:04:56;;;;;;;0.65;0.65;;;;;;;12.89;70.16;100202.69;5160106;28;20038;-90
2023/03/30 09:07:38;;;;;;;0.98;0.80;;;;;;;12.62;73.63;100196.00;5164407;28;20080;-88
2023/03/30 09:10:14;;;;;;;0.25;0.25;;;;;;;12.83;73.20;100208.25;5160755;28;20038;-89
2023/03/30 09:12:48;;;;;;;0.45;0.45;;;;;;;12.70;74.38;100204.44;5160668;28;20023;-88
2023/03/30 09:15:24;;;;;;;0.20;0.20;;;;;;;12.58;74.42;100205.81;5153295;28;20035;-89
2023/03/30 09:18:08;;;;;;;0.20;0.20;;;;;;;12.35;75.33;100201.56;5157585;28;20023;-88
2023/03/30 09:20:40;;;;;;;5.03;1.60;;;;;;;12.31;75.79;100202.63;5177521;28;20102;-87
2023/03/30 09:23:16;;;;;;;0.20;0.20;;;;;;;12.20;74.91;100205.69;5157390;28;20022;-88
2023/03/30 09:26:03;;;;;;;0.73;0.65;;;;;;;12.01;75.22;100211.72;5145928;28;20078;-88
2023/03/30 09:28:47;;;;;;;0.20;0.20;;;;;;;12.11;75.66;100214.81;5160181;28;20799;-88
2023/03/30 09:31:40;;;;;;;0.32;0.32;;;;;;;11.85;77.20;100222.00;5159113;28;20049;-86
2023/03/30 09:34:23;;;;;;;0.30;0.30;;;;;;;11.81;77.19;100230.91;5160823;28;20054;-87
2023/03/30 09:36:59;;;;;;;0.20;0.20;;;;;;;11.86;77.65;100243.88;5132111;28;20022;-88
2023/03/30 09:39:33;;;;;;;0.60;0.60;;;;;;;11.64;78.02;100242.09;5146053;28;20030;-90
2023/03/30 09:42:15;;;;;;;0.77;0.77;;;;;;;11.62;78.45;100236.88;5158267;28;20042;-88
2023/03/30 09:45:00;;;;;;;0.38;0.38;;;;;;;11.46;79.52;100248.91;5132052;28;20042;-88
2023/03/30 09:47:36;;;;;;;0.30;0.30;;;;;;;11.48;79.99;100253.22;5185371;28;20074;-89
2023/03/30 09:50:10;;;;;;;0.57;0.47;;;;;;;11.42;80.57;100245.53;5152488;28;20486;-87
2023/03/30 09:52:58;;;;;;;0.30;0.30;;;;;;;11.36;81.67;100252.81;5182868;28;20037;-89
2023/03/30 09:55:30;;;;;;;1.65;1.33;;;;;;;11.34;82.10;100258.97;5148692;28;20137;-89
2023/03/30 09:58:17;;;;;;;1.65;1.15;;;;;;;11.43;82.35;100252.50;5164084;28;20516;-89
2023/03/30 10:01:04;;;;;;;1.77;0.68;;;;;;;11.61;81.07;100245.69;5146705;28;20041;-86
2023/03/30 10:03:35;;;;;;;1.70;1.35;;;;;;;11.56;81.63;100252.06;5160065;28;20027;-89
2023/03/30 10:06:16;;;;;;;0.85;0.85;;;;;;;11.49;80.80;100251.41;5145667;28;20104;-88
2023/03/30 10:08:47;;;;;;;0.30;0.30;;;;;;;11.55;80.14;100224.06;5176144;28;20114;-88
2023/03/30 10:11:35;;;;;;;0.30;0.30;;;;;;;11.59;79.75;100226.50;5130815;28;20207;-88
2023/03/30 10:14:15;;;;;;;0.30;0.30;;;;;;;11.60;79.50;100232.59;5162826;28;20022;-88
2023/03/30 10:16:46;;;;;;;0.20;0.20;;;;;;;11.69;79.37;100241.91;5152760;28;20390;-89
2023/03/30 10:19:21;;;;;;;0.40;0.40;;;;;;;11.69;78.02;100245.38;5132601;28;20076;-88
2023/03/30 10:21:54;;;;;;;0.57;0.57;;;;;;;11.79;77.67;100254.63;5147621;28;20023;-87
2023/03/30 10:24:27;;;;;;;0.25;0.25;;;;;;;11.70;76.58;100243.59;5160038;28;20042;-87
2023/03/30 10:27:08;;;;;;;0.75;0.55;;;;;;;11.77;76.86;100245.09;5133172;28;20030;-88
2023/03/30 10:29:45;;;;;;;0.30;0.30;;;;;;;11.78;75.57;100234.50;5130724;28;20113;-89
2023/03/30 10:32:30;;;;;;;0.50;0.50;;;;;;;11.82;76.26;100236.09;5178062;28;20026;-90
2023/03/30 10:35:06;;;;;;;0.55;0.52;;;;;;;11.88;75.96;100236.78;5139696;28;20049;-89
2023/03/30 10:37:41;;;;;;;0.63;0.63;;;;;;;12.00;75.10;100232.81;5164608;28;20111;-89
2023/03/30 10:40:15;;;;;;;0.75;0.75;;;;;;;11.95;74.79;100233.81;5146162;28;20043;-89
2023/03/30 10:42:48;;;;;;;0.20;0.20;;;;;;;12.02;75.06;100233.63;5164357;28;20034;-90
2023/03/30 10:45:26;;;;;;;0.40;0.40;;;;;;;12.09;74.49;100241.19;5131020;28;20050;-90
2023/03/30 10:48:19;;;;;;;0.38;0.38;;;;;;;12.22;74.20;100232.81;5158340;28;20030;-89
2023/03/30 10:51:16;;;;;;;0.47;0.47;;;;;;;12.35;73.04;100238.41;5134164;28;20026;-89
2023/03/30 10:54:15;;;;;;;0.38;0.38;;;;;;;12.45;72.72;100231.81;5162569;28;20722;-89
2023/03/30 10:56:51;;;;;;;0.20;0.20;;;;;;;12.56;72.69;100234.84;5125347;28;20444;-89
2023/03/30 10:59:46;;;;;;;0.50;0.50;;;;;;;12.62;72.26;100240.75;5162845;28;20034;-88
2023/03/30 11:02:22;;;;;;;0.30;0.30;;;;;;;12.68;72.25;100251.88;5157278;28;20031;-89
2023/03/30 11:05:11;;;;;;;1.00;0.85;;;;;;;12.79;72.29;100246.13;5126016;28;20046;-89
2023/03/30 11:08:04;;;;;;;0.57;0.57;;;;;;;12.96;72.65;100240.16;5170725;28;20027;-90
2023/03/30 11:10:48;;;;;;;2.63;0.68;;;;;;;13.08;72.15;100246.63;5152203;28;20034;-89
2023/03/30 11:13:27;;;;;;;0.20;0.20;;;;;;;13.06;70.93;100248.47;5160415;28;20034;-89
2023/03/30 11:16:04;;;;;;;0.50;0.50;;;;;;;13.13;70.98;100259.59;5160630;28;20037;-90
2023/03/30 11:18:46;;;;;;;2.67;1.70;;;;;;;13.12;70.36;100256.09;5147999;28;20042;-89
2023/03/30 11:21:55;;;;;;;0.20;0.20;;;;;;;13.18;71.21;100261.06;5160422;28;20115;-89
2023/03/30 11:24:27;;;;;;;3.10;0.75;;;;;;;13.25;70.65;100258.19;5125623;28;20544;-89
2023/03/30 11:26:58;;;;;;;0.30;0.30;;;;;;;13.31;71.10;100252.63;5141644;28;20042;-90
2023/03/30 11:29:49;;;;;;;0.20;0.20;;;;;;;13.42;71.99;100258.31;5144217;28;20046;-88
2023/03/30 11:32:39;;;;;;;0.25;0.25;;;;;;;13.61;69.88;100247.75;5146286;28;20023;-87
2023/03/30 11:35:29;;;;;;;0.25;0.25;;;;;;;13.65;69.75;100248.47;5139419;28;20042;-89
2023/03/30 11:38:10;;;;;;;0.20;0.20;;;;;;;13.64;69.09;100246.75;5137123;28;20093;-89
2023/03/30 11:40:52;;;;;;;0.30;0.30;;;;;;;13.65;70.00;100246.66;5141962;28;20042;-89
2023/03/30 11:43:26;;;;;;;0.20;0.20;;;;;;;13.73;69.66;100248.06;5147409;28;20035;-89
2023/03/30 11:45:56;;;;;;;;;;;;;;;13.62;69.88;100251.22;5139250;28;20034;-91
2023/03/30 11:48:42;;;;;;;;;;;;;;;13.45;70.55;100257.31;5128662;28;20234;-88
2023/03/30 11:51:41;;;;;;;0.55;0.55;;;;;;;13.29;74.87;100249.22;5134362;28;19965;-88
2023/03/30 11:54:27;;;;;;;0.20;0.20;;;;;;;13.35;75.92;100251.53;5159353;28;20039;-89
2023/03/30 11:57:00;;;;;;;1.42;0.82;;;;;;;13.53;75.82;100253.38;5158125;28;20030;-91
2023/03/30 11:59:37;;;;;;;0.20;0.20;;;;;;;13.48;75.40;100255.38;5142928;28;20188;-90
2023/03/30 12:02:13;;;;;;;0.73;0.73;;;;;;;13.34;73.78;100244.59;5148818;28;20023;-89
2023/03/30 12:04:55;;;;;;;0.30;0.30;;;;;;;13.33;73.33;100250.78;5123306;28;20069;-89
2023/03/30 12:07:42;;;;;;;0.52;0.52;;;;;;;13.17;73.29;100264.66;5157183;28;20019;-88